sensor_id;sensor_type;location;lat;lon;timestamp;pressure;altitude;pressure_sealevel;temperature;humidity
9893;BME280;4985;49.092;8.542;2023-06-22T00:01:09;99281.28;;;27.15;48.84
9893;BME280;4985;49.092;8.542;2023-06-22T00:03:35;99285.06;;;27.14;48.95
9893;BME280;4985;49.092;8.542;2023-06-22T00:06:02;99281.56;;;27.14;49.04
9893;BME280;4985;49.092;8.542;2023-06-22T00:08:28;99278.84;;;27.14;49.11
9893;BME280;4985;49.092;8.542;2023-06-22T00:10:55;99271.03;;;27.12;49.11
9893;BME280;4985;49.092;8.542;2023-06-22T00:13:23;99277.25;;;27.13;49.09
9893;BME280;4985;49.092;8.542;2023-06-22T00:15:49;99285.63;;;27.11;49.07
9893;BME280;4985;49.092;8.542;2023-06-22T00:18:16;99296.41;;;27.11;49.04
9893;BME280;4985;49.092;8.542;2023-06-22T00:20:43;99285.63;;;27.11;49.00
9893;BME280;4985;49.092;8.542;2023-06-22T00:23:11;99295.62;;;27.11;48.98
9893;BME280;4985;49.092;8.542;2023-06-22T00:25:39;99288.31;;;27.11;48.97
9893;BME280;4985;49.092;8.542;2023-06-22T00:28:06;99276.16;;;27.09;48.95
9893;BME280;4985;49.092;8.542;2023-06-22T00:30:35;99285.88;;;27.10;48.95
9893;BME280;4985;49.092;8.542;2023-06-22T00:33:01;99300.22;;;27.10;48.93
9893;BME280;4985;49.092;8.542;2023-06-22T00:35:28;99315.63;;;27.10;48.92
9893;BME280;4985;49.092;8.542;2023-06-22T00:37:55;99331.81;;;27.10;48.92
9893;BME280;4985;49.092;8.542;2023-06-22T00:40:26;99358.03;;;27.09;48.90
9893;BME280;4985;49.092;8.542;2023-06-22T00:42:53;99432.88;;;27.09;48.90
9893;BME280;4985;49.092;8.542;2023-06-22T00:45:20;99523.94;;;27.08;48.91
9893;BME280;4985;49.092;8.542;2023-06-22T00:47:50;99572.81;;;27.07;48.92
9893;BME280;4985;49.092;8.542;2023-06-22T00:50:20;99539.03;;;27.04;48.92
9893;BME280;4985;49.092;8.542;2023-06-22T00:52:48;99390.72;;;27.03;48.90
9893;BME280;4985;49.092;8.542;2023-06-22T00:55:17;99332.09;;;27.03;48.88
9893;BME280;4985;49.092;8.542;2023-06-22T00:57:45;99335.59;;;27.04;49.01
9893;BME280;4985;49.092;8.542;2023-06-22T01:00:12;99331.28;;;27.03;49.13
9893;BME280;4985;49.092;8.542;2023-06-22T01:02:42;99338.03;;;27.05;49.18
9893;BME280;4985;49.092;8.542;2023-06-22T01:05:12;99331.53;;;27.06;49.24
9893;BME280;4985;49.092;8.542;2023-06-22T01:07:41;99333.19;;;27.07;49.22
9893;BME280;4985;49.092;8.542;2023-06-22T01:10:16;99331.53;;;27.06;49.19
9893;BME280;4985;49.092;8.542;2023-06-22T01:12:50;99326.12;;;27.06;49.15
9893;BME280;4985;49.092;8.542;2023-06-22T01:15:22;99326.69;;;27.03;49.12
9893;BME280;4985;49.092;8.542;2023-06-22T01:17:50;99330.72;;;27.06;49.07
9893;BME280;4985;49.092;8.542;2023-06-22T01:20:20;99336.94;;;27.06;49.02
9893;BME280;4985;49.092;8.542;2023-06-22T01:23:02;99334.22;;;27.06;48.98
9893;BME280;4985;49.092;8.542;2023-06-22T01:25:37;99341.53;;;27.06;48.94
9893;BME280;4985;49.092;8.542;2023-06-22T01:28:19;99347.22;;;27.04;48.91
9893;BME280;4985;49.092;8.542;2023-06-22T01:30:51;99346.41;;;27.04;48.87
9893;BME280;4985;49.092;8.542;2023-06-22T01:33:29;99344.50;;;27.04;48.84
9893;BME280;4985;49.092;8.542;2023-06-22T01:35:58;99349.91;;;27.04;48.82
9893;BME280;4985;49.092;8.542;2023-06-22T01:38:26;99340.19;;;27.03;48.80
9893;BME280;4985;49.092;8.542;2023-06-22T01:40:54;99349.09;;;27.04;48.79
9893;BME280;4985;49.092;8.542;2023-06-22T01:43:24;99347.47;;;27.03;48.79
9893;BME280;4985;49.092;8.542;2023-06-22T01:45:53;99343.97;;;27.02;48.79
9893;BME280;4985;49.092;8.542;2023-06-22T01:48:20;99357.47;;;27.02;48.78
9893;BME280;4985;49.092;8.542;2023-06-22T01:50:48;99357.47;;;27.02;48.79
9893;BME280;4985;49.092;8.542;2023-06-22T01:53:14;99362.88;;;27.02;48.80
9893;BME280;4985;49.092;8.542;2023-06-22T01:55:41;99352.59;;;26.99;48.79
9893;BME280;4985;49.092;8.542;2023-06-22T01:58:07;99359.63;;;27.00;48.79
9893;BME280;4985;49.092;8.542;2023-06-22T02:00:37;99365.00;;;27.00;48.81
9893;BME280;4985;49.092;8.542;2023-06-22T02:03:10;99356.09;;;26.99;48.81
9893;BME280;4985;49.092;8.542;2023-06-22T02:05:39;99356.09;;;26.99;48.82
9893;BME280;4985;49.092;8.542;2023-06-22T02:08:11;99358.00;;;26.99;48.82
9893;BME280;4985;49.092;8.542;2023-06-22T02:10:40;99358.00;;;26.99;48.82
9893;BME280;4985;49.092;8.542;2023-06-22T02:13:09;99349.88;;;26.99;48.82
9893;BME280;4985;49.092;8.542;2023-06-22T02:15:36;99351.78;;;26.98;48.80
9893;BME280;4985;49.092;8.542;2023-06-22T02:18:03;99347.19;;;26.99;48.81
9893;BME280;4985;49.092;8.542;2023-06-22T02:20:32;99345.56;;;26.98;48.80
9893;BME280;4985;49.092;8.542;2023-06-22T02:22:58;99347.19;;;26.99;48.81
9893;BME280;4985;49.092;8.542;2023-06-22T02:25:25;99330.97;;;26.99;48.79
9893;BME280;4985;49.092;8.542;2023-06-22T02:27:51;99334.75;;;26.98;48.80
9893;BME280;4985;49.092;8.542;2023-06-22T02:30:18;99332.88;;;26.98;48.80
9893;BME280;4985;49.092;8.542;2023-06-22T02:32:44;99340.16;;;26.98;48.81
9893;BME280;4985;49.092;8.542;2023-06-22T02:35:11;99335.56;;;26.98;48.81
9893;BME280;4985;49.092;8.542;2023-06-22T02:37:40;99330.16;;;26.98;48.80
9893;BME280;4985;49.092;8.542;2023-06-22T02:40:08;99329.34;;;26.98;48.80
9893;BME280;4985;49.092;8.542;2023-06-22T02:42:36;99327.75;;;26.97;48.80
9893;BME280;4985;49.092;8.542;2023-06-22T02:45:03;99327.75;;;26.97;48.80
9893;BME280;4985;49.092;8.542;2023-06-22T02:47:30;99316.13;;;26.96;48.79
9893;BME280;4985;49.092;8.542;2023-06-22T02:49:56;99311.53;;;26.97;48.76
9893;BME280;4985;49.092;8.542;2023-06-22T02:52:23;99310.72;;;26.96;48.76
9893;BME280;4985;49.092;8.542;2023-06-22T02:54:51;99315.31;;;26.96;48.76
9893;BME280;4985;49.092;8.542;2023-06-22T02:57:17;99319.06;;;26.95;48.76
9893;BME280;4985;49.092;8.542;2023-06-22T02:59:44;99304.50;;;26.96;48.76
9893;BME280;4985;49.092;8.542;2023-06-22T03:02:11;99307.47;;;26.94;48.76
9893;BME280;4985;49.092;8.542;2023-06-22T03:04:37;99308.25;;;26.95;48.78
9893;BME280;4985;49.092;8.542;2023-06-22T03:07:04;99309.06;;;26.95;48.77
9893;BME280;4985;49.092;8.542;2023-06-22T03:09:31;99297.47;;;26.95;48.76
9893;BME280;4985;49.092;8.542;2023-06-22T03:11:59;99306.66;;;26.94;48.76
9893;BME280;4985;49.092;8.542;2023-06-22T03:14:27;99297.19;;;26.91;48.77
9893;BME280;4985;49.092;8.542;2023-06-22T03:16:53;99301.25;;;26.94;48.75
9893;BME280;4985;49.092;8.542;2023-06-22T03:19:26;99302.84;;;26.95;48.75
9893;BME280;4985;49.092;8.542;2023-06-22T03:21:54;99286.94;;;26.93;48.74
9893;BME280;4985;49.092;8.542;2023-06-22T03:24:21;99278.81;;;26.93;48.72
9893;BME280;4985;49.092;8.542;2023-06-22T03:26:48;99282.34;;;26.94;48.71
9893;BME280;4985;49.092;8.542;2023-06-22T03:29:16;99285.84;;;26.94;48.71
9893;BME280;4985;49.092;8.542;2023-06-22T03:31:42;99286.94;;;26.93;48.70
9893;BME280;4985;49.092;8.542;2023-06-22T03:34:09;99270.72;;;26.93;48.68
9893;BME280;4985;49.092;8.542;2023-06-22T03:36:35;99279.63;;;26.94;48.66
9893;BME280;4985;49.092;8.542;2023-06-22T03:39:02;99281.53;;;26.93;48.66
9893;BME280;4985;49.092;8.542;2023-06-22T03:41:28;99286.94;;;26.93;48.68
9893;BME280;4985;49.092;8.542;2023-06-22T03:43:55;99285.03;;;26.94;48.67
9893;BME280;4985;49.092;8.542;2023-06-22T03:46:23;99288.81;;;26.93;48.65
9893;BME280;4985;49.092;8.542;2023-06-22T03:48:49;99283.41;;;26.93;48.63
9893;BME280;4985;49.092;8.542;2023-06-22T03:51:16;99281.81;;;26.92;48.78
9893;BME280;4985;49.092;8.542;2023-06-22T03:53:43;99286.66;;;26.90;48.95
9893;BME280;4985;49.092;8.542;2023-06-22T03:56:09;99276.66;;;26.80;49.37
9893;BME280;4985;49.092;8.542;2023-06-22T03:58:36;99276.16;;;26.73;49.58
9893;BME280;4985;49.092;8.542;2023-06-22T04:01:08;99277.47;;;26.65;49.80
9893;BME280;4985;49.092;8.542;2023-06-22T04:03:38;99280.69;;;26.57;50.10
9893;BME280;4985;49.092;8.542;2023-06-22T04:06:04;99280.97;;;26.51;50.32
9893;BME280;4985;49.092;8.542;2023-06-22T04:08:31;99272.59;;;26.42;50.47
9893;BME280;4985;49.092;8.542;2023-06-22T04:10:57;99264.47;;;26.37;50.63
9893;BME280;4985;49.092;8.542;2023-06-22T04:13:24;99267.66;;;26.34;50.65
9893;BME280;4985;49.092;8.542;2023-06-22T04:15:50;99260.38;;;26.29;50.77
9893;BME280;4985;49.092;8.542;2023-06-22T04:18:17;99262.78;;;26.26;50.86
9893;BME280;4985;49.092;8.542;2023-06-22T04:20:45;99259.53;;;26.24;50.98
9893;BME280;4985;49.092;8.542;2023-06-22T04:23:12;99258.75;;;26.23;51.09
9893;BME280;4985;49.092;8.542;2023-06-22T04:25:39;99266.28;;;26.21;51.19
9893;BME280;4985;49.092;8.542;2023-06-22T04:28:05;99261.44;;;26.18;51.21
9893;BME280;4985;49.092;8.542;2023-06-22T04:30:37;99246.56;;;26.16;51.30
9893;BME280;4985;49.092;8.542;2023-06-22T04:33:11;99244.94;;;26.09;51.49
9893;BME280;4985;49.092;8.542;2023-06-22T04:35:38;99240.34;;;26.00;51.72
9893;BME280;4985;49.092;8.542;2023-06-22T04:38:08;99249.22;;;26.00;51.93
9893;BME280;4985;49.092;8.542;2023-06-22T04:40:34;99239.25;;;25.96;52.02
9893;BME280;4985;49.092;8.542;2023-06-22T04:43:01;99240.84;;;25.92;52.10
9893;BME280;4985;49.092;8.542;2023-06-22T04:45:29;99242.19;;;25.89;52.20
9893;BME280;4985;49.092;8.542;2023-06-22T04:47:55;99254.31;;;25.87;52.35
9893;BME280;4985;49.092;8.542;2023-06-22T04:50:22;99257.53;;;25.83;52.45
9893;BME280;4985;49.092;8.542;2023-06-22T04:52:49;99246.19;;;25.81;52.50
9893;BME280;4985;49.092;8.542;2023-06-22T04:55:18;99248.88;;;25.81;52.60
9893;BME280;4985;49.092;8.542;2023-06-22T04:57:45;99235.94;;;25.78;52.56
9893;BME280;4985;49.092;8.542;2023-06-22T05:00:14;99244.56;;;25.80;52.58
9893;BME280;4985;49.092;8.542;2023-06-22T05:02:43;99247.84;;;25.82;52.56
9893;BME280;4985;49.092;8.542;2023-06-22T05:05:10;99247.00;;;25.82;52.42
9893;BME280;4985;49.092;8.542;2023-06-22T05:07:40;99233.78;;;25.80;52.46
9893;BME280;4985;49.092;8.542;2023-06-22T05:10:09;99233.50;;;25.82;52.58
9893;BME280;4985;49.092;8.542;2023-06-22T05:12:39;99235.41;;;25.81;52.60
9893;BME280;4985;49.092;8.542;2023-06-22T05:15:07;99228.12;;;25.82;52.53
9893;BME280;4985;49.092;8.542;2023-06-22T05:17:34;99230.81;;;25.82;52.64
9893;BME280;4985;49.092;8.542;2023-06-22T05:20:01;99224.88;;;25.80;52.72
9893;BME280;4985;49.092;8.542;2023-06-22T05:22:31;99221.09;;;25.81;52.80
9893;BME280;4985;49.092;8.542;2023-06-22T05:24:58;99214.91;;;25.80;52.84
9893;BME280;4985;49.092;8.542;2023-06-22T05:27:24;99216.53;;;25.81;52.91
9893;BME280;4985;49.092;8.542;2023-06-22T05:29:52;99209.25;;;25.82;52.97
9893;BME280;4985;49.092;8.542;2023-06-22T05:32:19;99209.25;;;25.82;53.03
9893;BME280;4985;49.092;8.542;2023-06-22T05:34:46;99214.63;;;25.82;53.17
9893;BME280;4985;49.092;8.542;2023-06-22T05:37:12;99218.97;;;25.83;53.39
9893;BME280;4985;49.092;8.542;2023-06-22T05:39:39;99210.91;;;25.83;53.69
9893;BME280;4985;49.092;8.542;2023-06-22T05:42:05;99213.59;;;25.83;54.00
9893;BME280;4985;49.092;8.542;2023-06-22T05:44:32;99210.91;;;25.83;53.96
9893;BME280;4985;49.092;8.542;2023-06-22T05:47:01;99212.50;;;25.84;53.93
9893;BME280;4985;49.092;8.542;2023-06-22T05:49:28;99216.03;;;25.85;53.81
9893;BME280;4985;49.092;8.542;2023-06-22T05:51:58;99220.59;;;25.84;54.19
9893;BME280;4985;49.092;8.542;2023-06-22T05:54:24;99217.91;;;25.84;54.45
9893;BME280;4985;49.092;8.542;2023-06-22T05:56:51;99212.50;;;25.84;54.37
9893;BME280;4985;49.092;8.542;2023-06-22T05:59:17;99205.22;;;25.85;54.16
9893;BME280;4985;49.092;8.542;2023-06-22T06:01:44;99203.34;;;25.85;54.00
9893;BME280;4985;49.092;8.542;2023-06-22T06:04:16;99210.34;;;25.86;53.84
9893;BME280;4985;49.092;8.542;2023-06-22T06:06:43;99211.97;;;25.87;53.73
9893;BME280;4985;49.092;8.542;2023-06-22T06:09:09;99213.31;;;25.90;53.55
9893;BME280;4985;49.092;8.542;2023-06-22T06:11:36;99200.09;;;25.88;53.35
9893;BME280;4985;49.092;8.542;2023-06-22T06:14:03;99213.88;;;25.92;53.17
9893;BME280;4985;49.092;8.542;2023-06-22T06:16:30;99205.50;;;25.93;53.03
9893;BME280;4985;49.092;8.542;2023-06-22T06:18:56;99217.13;;;25.94;52.89
9893;BME280;4985;49.092;8.542;2023-06-22T06:21:25;99224.97;;;25.95;52.77
9893;BME280;4985;49.092;8.542;2023-06-22T06:23:51;99223.59;;;25.98;52.64
9893;BME280;4985;49.092;8.542;2023-06-22T06:26:18;99226.31;;;25.98;52.53
9893;BME280;4985;49.092;8.542;2023-06-22T06:28:53;99224.41;;;25.98;52.43
9893;BME280;4985;49.092;8.542;2023-06-22T06:31:19;99220.62;;;25.99;52.34
9893;BME280;4985;49.092;8.542;2023-06-22T06:33:46;99227.66;;;26.00;52.27
9893;BME280;4985;49.092;8.542;2023-06-22T06:36:12;99213.09;;;26.01;52.19
9893;BME280;4985;49.092;8.542;2023-06-22T06:38:40;99214.72;;;26.02;52.12
9893;BME280;4985;49.092;8.542;2023-06-22T06:41:07;99210.94;;;26.03;52.07
9893;BME280;4985;49.092;8.542;2023-06-22T06:43:33;99199.34;;;26.03;52.01
9893;BME280;4985;49.092;8.542;2023-06-22T06:46:00;99195.56;;;26.04;51.96
9893;BME280;4985;49.092;8.542;2023-06-22T06:48:28;99191.81;;;26.05;51.91
9893;BME280;4985;49.092;8.542;2023-06-22T06:50:54;99187.22;;;26.05;51.84
9893;BME280;4985;49.092;8.542;2023-06-22T06:53:21;99185.06;;;26.07;51.79
9893;BME280;4985;49.092;8.542;2023-06-22T06:55:49;99174.28;;;26.07;51.74
9893;BME280;4985;49.092;8.542;2023-06-22T06:58:16;99168.88;;;26.07;51.72
9893;BME280;4985;49.092;8.542;2023-06-22T07:00:42;99171.31;;;26.09;51.67
9893;BME280;4985;49.092;8.542;2023-06-22T07:03:09;99158.62;;;26.09;51.64
9893;BME280;4985;49.092;8.542;2023-06-22T07:05:36;99159.44;;;26.10;51.58
9893;BME280;4985;49.092;8.542;2023-06-22T07:08:03;99153.22;;;26.09;51.56
9893;BME280;4985;49.092;8.542;2023-06-22T07:10:29;99157.53;;;26.10;51.53
9893;BME280;4985;49.092;8.542;2023-06-22T07:12:57;99164.03;;;26.09;51.48
9893;BME280;4985;49.092;8.542;2023-06-22T07:15:24;99165.63;;;26.10;51.48
9893;BME280;4985;49.092;8.542;2023-06-22T07:17:50;99169.16;;;26.11;51.44
9893;BME280;4985;49.092;8.542;2023-06-22T07:20:17;99160.25;;;26.10;51.41
9893;BME280;4985;49.092;8.542;2023-06-22T07:22:45;99157.53;;;26.10;51.36
9893;BME280;4985;49.092;8.542;2023-06-22T07:25:12;99169.16;;;26.11;51.33
9893;BME280;4985;49.092;8.542;2023-06-22T07:27:44;99162.94;;;26.10;51.29
9893;BME280;4985;49.092;8.542;2023-06-22T07:30:13;99157.00;;;26.08;51.26
9893;BME280;4985;49.092;8.542;2023-06-22T07:32:40;99153.50;;;26.13;51.24
9893;BME280;4985;49.092;8.542;2023-06-22T07:35:07;99150.00;;;26.12;51.19
9893;BME280;4985;49.092;8.542;2023-06-22T07:37:34;99146.22;;;26.13;51.17
9893;BME280;4985;49.092;8.542;2023-06-22T07:40:00;99145.13;;;26.15;51.14
9893;BME280;4985;49.092;8.542;2023-06-22T07:42:31;99139.47;;;26.16;51.12
9893;BME280;4985;49.092;8.542;2023-06-22T07:44:58;99135.97;;;26.16;51.09
9893;BME280;4985;49.092;8.542;2023-06-22T07:47:26;99129.50;;;26.17;51.07
9893;BME280;4985;49.092;8.542;2023-06-22T07:49:53;99130.31;;;26.17;51.05
9893;BME280;4985;49.092;8.542;2023-06-22T07:52:23;99130.31;;;26.17;51.01
9893;BME280;4985;49.092;8.542;2023-06-22T07:54:49;99126.25;;;26.15;51.00
9893;BME280;4985;49.092;8.542;2023-06-22T07:57:16;99125.72;;;26.18;50.97
9893;BME280;4985;49.092;8.542;2023-06-22T07:59:43;99136.53;;;26.18;50.94
9893;BME280;4985;49.092;8.542;2023-06-22T08:02:10;99131.94;;;26.18;50.93
9893;BME280;4985;49.092;8.542;2023-06-22T08:04:38;99127.34;;;26.19;50.92
9893;BME280;4985;49.092;8.542;2023-06-22T08:07:05;99115.47;;;26.20;50.89
9893;BME280;4985;49.092;8.542;2023-06-22T08:09:32;99118.72;;;26.22;50.85
9893;BME280;4985;49.092;8.542;2023-06-22T08:11:59;99126.81;;;26.22;50.85
9893;BME280;4985;49.092;8.542;2023-06-22T08:14:27;99135.97;;;26.21;50.83
9893;BME280;4985;49.092;8.542;2023-06-22T08:16:54;99141.91;;;26.23;50.83
9893;BME280;4985;49.092;8.542;2023-06-22T08:19:20;99141.91;;;26.23;50.81
9893;BME280;4985;49.092;8.542;2023-06-22T08:21:48;99150.81;;;26.23;50.79
9893;BME280;4985;49.092;8.542;2023-06-22T08:24:15;99157.81;;;26.24;50.77
9893;BME280;4985;49.092;8.542;2023-06-22T08:26:41;99153.22;;;26.25;50.74
9893;BME280;4985;49.092;8.542;2023-06-22T08:29:08;99151.06;;;26.27;50.69
9893;BME280;4985;49.092;8.542;2023-06-22T08:31:36;99160.53;;;26.29;50.67
9893;BME280;4985;49.092;8.542;2023-06-22T08:34:02;99169.44;;;26.30;50.64
9893;BME280;4985;49.092;8.542;2023-06-22T08:36:29;99174.84;;;26.30;50.62
9893;BME280;4985;49.092;8.542;2023-06-22T08:38:59;99182.94;;;26.30;50.62
9893;BME280;4985;49.092;8.542;2023-06-22T08:41:26;99211.53;;;26.31;50.62
9893;BME280;4985;49.092;8.542;2023-06-22T08:43:53;99196.44;;;26.30;50.63
9893;BME280;4985;49.092;8.542;2023-06-22T08:46:19;99234.22;;;26.30;50.63
9893;BME280;4985;49.092;8.542;2023-06-22T08:48:48;99253.91;;;26.30;50.63
9893;BME280;4985;49.092;8.542;2023-06-22T08:51:15;99253.91;;;26.30;50.62
9893;BME280;4985;49.092;8.542;2023-06-22T08:53:42;99215.31;;;26.30;50.60
9893;BME280;4985;49.092;8.542;2023-06-22T08:56:11;99187.25;;;26.31;50.56
9893;BME280;4985;49.092;8.542;2023-06-22T08:58:38;99163.78;;;26.31;50.53
9893;BME280;4985;49.092;8.542;2023-06-22T09:01:04;99157.31;;;26.32;50.52
9893;BME280;4985;49.092;8.542;2023-06-22T09:03:31;99137.59;;;26.32;50.51
9893;BME280;4985;49.092;8.542;2023-06-22T09:06:01;99112.22;;;26.33;50.49
9893;BME280;4985;49.092;8.542;2023-06-22T09:08:28;99086.87;;;26.34;50.46
9893;BME280;4985;49.092;8.542;2023-06-22T09:10:54;99086.06;;;26.33;50.43
9893;BME280;4985;49.092;8.542;2023-06-22T09:13:22;99087.66;;;26.34;50.42
9893;BME280;4985;49.092;8.542;2023-06-22T09:15:49;99083.88;;;26.35;50.42
9893;BME280;4985;49.092;8.542;2023-06-22T09:18:17;99100.88;;;26.36;50.42
9893;BME280;4985;49.092;8.542;2023-06-22T09:20:45;99128.72;;;26.36;50.42
9893;BME280;4985;49.092;8.542;2023-06-22T09:23:12;99120.88;;;26.35;50.41
9893;BME280;4985;49.092;8.542;2023-06-22T09:25:38;99116.03;;;26.37;50.41
9893;BME280;4985;49.092;8.542;2023-06-22T09:28:05;99131.13;;;26.38;50.40
9893;BME280;4985;49.092;8.542;2023-06-22T09:30:33;99124.69;;;26.39;50.40
9893;BME280;4985;49.092;8.542;2023-06-22T09:33:00;99125.75;;;26.38;50.38
9893;BME280;4985;49.092;8.542;2023-06-22T09:35:27;99126.56;;;26.38;50.37
9893;BME280;4985;49.092;8.542;2023-06-22T09:37:54;99116.59;;;26.39;50.36
9893;BME280;4985;49.092;8.542;2023-06-22T09:40:20;99115.50;;;26.40;50.36
9893;BME280;4985;49.092;8.542;2023-06-22T09:42:47;99120.91;;;26.40;50.35
9893;BME280;4985;49.092;8.542;2023-06-22T09:45:13;99108.22;;;26.40;50.34
9893;BME280;4985;49.092;8.542;2023-06-22T09:47:41;99100.13;;;26.40;50.36
9893;BME280;4985;49.092;8.542;2023-06-22T09:50:08;99094.72;;;26.40;50.36
9893;BME280;4985;49.092;8.542;2023-06-22T09:52:35;99094.72;;;26.40;50.37
9893;BME280;4985;49.092;8.542;2023-06-22T09:55:01;99099.84;;;26.42;50.40
9893;BME280;4985;49.092;8.542;2023-06-22T09:57:29;99095.25;;;26.43;50.46
9893;BME280;4985;49.092;8.542;2023-06-22T09:59:55;99088.78;;;26.44;50.48
9893;BME280;4985;49.092;8.542;2023-06-22T10:02:22;99090.66;;;26.43;50.52
9893;BME280;4985;49.092;8.542;2023-06-22T10:04:50;99075.00;;;26.45;50.53
9893;BME280;4985;49.092;8.542;2023-06-22T10:07:16;99073.13;;;26.46;50.58
9893;BME280;4985;49.092;8.542;2023-06-22T10:09:43;99068.53;;;26.46;50.65
9893;BME280;4985;49.092;8.542;2023-06-22T10:12:10;99062.84;;;26.48;50.67
9893;BME280;4985;49.092;8.542;2023-06-22T10:14:36;99060.97;;;26.48;50.70
9893;BME280;4985;49.092;8.542;2023-06-22T10:17:03;99052.06;;;26.48;50.79
9893;BME280;4985;49.092;8.542;2023-06-22T10:19:32;99045.56;;;26.49;50.79
9893;BME280;4985;49.092;8.542;2023-06-22T10:22:00;99049.09;;;26.49;50.82
9893;BME280;4985;49.092;8.542;2023-06-22T10:24:26;99041.00;;;26.49;50.85
9893;BME280;4985;49.092;8.542;2023-06-22T10:26:53;99039.91;;;26.50;50.85
9893;BME280;4985;49.092;8.542;2023-06-22T10:29:20;99029.66;;;26.52;50.81
9893;BME280;4985;49.092;8.542;2023-06-22T10:31:46;99035.34;;;26.51;50.81
9893;BME280;4985;49.092;8.542;2023-06-22T10:34:13;99033.97;;;26.53;50.84
9893;BME280;4985;49.092;8.542;2023-06-22T10:36:39;99029.66;;;26.52;50.84
9893;BME280;4985;49.092;8.542;2023-06-22T10:39:07;99041.00;;;26.54;50.84
9893;BME280;4985;49.092;8.542;2023-06-22T10:41:35;99043.69;;;26.54;50.92
9893;BME280;4985;49.092;8.542;2023-06-22T10:44:01;99031.81;;;26.55;50.90
9893;BME280;4985;49.092;8.542;2023-06-22T10:46:28;99024.53;;;26.56;50.98
9893;BME280;4985;49.092;8.542;2023-06-22T10:48:55;99025.31;;;26.56;50.92
9893;BME280;4985;49.092;8.542;2023-06-22T10:51:23;99023.44;;;26.57;50.95
9893;BME280;4985;49.092;8.542;2023-06-22T10:53:50;99033.94;;;26.58;51.04
9893;BME280;4985;49.092;8.542;2023-06-22T10:56:19;99032.87;;;26.59;51.04
9893;BME280;4985;49.092;8.542;2023-06-22T10:58:45;99027.47;;;26.59;51.00
9893;BME280;4985;49.092;8.542;2023-06-22T11:01:12;99030.69;;;26.61;51.06
9893;BME280;4985;49.092;8.542;2023-06-22T11:03:39;99032.59;;;26.61;51.05
9893;BME280;4985;49.092;8.542;2023-06-22T11:06:06;99033.41;;;26.61;51.04
9893;BME280;4985;49.092;8.542;2023-06-22T11:08:32;99042.06;;;26.63;51.14
9893;BME280;4985;49.092;8.542;2023-06-22T11:10:59;99036.66;;;26.63;51.09
9893;BME280;4985;49.092;8.542;2023-06-22T11:13:27;99036.66;;;26.63;51.08
9893;BME280;4985;49.092;8.542;2023-06-22T11:15:53;99043.66;;;26.64;51.12
9893;BME280;4985;49.092;8.542;2023-06-22T11:18:20;99039.06;;;26.65;51.14
9893;BME280;4985;49.092;8.542;2023-06-22T11:20:48;99030.97;;;26.65;51.13
9893;BME280;4985;49.092;8.542;2023-06-22T11:23:15;99033.69;;;26.65;51.19
9893;BME280;4985;49.092;8.542;2023-06-22T11:25:41;99039.88;;;26.65;51.16
9893;BME280;4985;49.092;8.542;2023-06-22T11:28:08;99036.09;;;26.66;51.17
9893;BME280;4985;49.092;8.542;2023-06-22T11:30:36;99026.09;;;26.67;51.16
9893;BME280;4985;49.092;8.542;2023-06-22T11:33:02;99027.72;;;26.68;51.15
9893;BME280;4985;49.092;8.542;2023-06-22T11:35:29;99026.91;;;26.67;51.19
9893;BME280;4985;49.092;8.542;2023-06-22T11:37:56;99019.63;;;26.68;51.18
9893;BME280;4985;49.092;8.542;2023-06-22T11:40:23;99008.53;;;26.69;51.23
9893;BME280;4985;49.092;8.542;2023-06-22T11:42:50;99010.97;;;26.71;51.22
9893;BME280;4985;49.092;8.542;2023-06-22T11:45:17;99004.75;;;26.70;51.24
9893;BME280;4985;49.092;8.542;2023-06-22T11:47:45;99000.97;;;26.72;51.31
9893;BME280;4985;49.092;8.542;2023-06-22T11:50:12;98991.78;;;26.73;51.31
9893;BME280;4985;49.092;8.542;2023-06-22T11:52:38;98997.19;;;26.73;51.35
9893;BME280;4985;49.092;8.542;2023-06-22T11:55:06;98983.44;;;26.74;51.32
9893;BME280;4985;49.092;8.542;2023-06-22T11:57:33;98990.72;;;26.74;51.31
9893;BME280;4985;49.092;8.542;2023-06-22T12:00:01;98999.06;;;26.72;51.31
9893;BME280;4985;49.092;8.542;2023-06-22T12:02:31;99007.47;;;26.76;51.31
9893;BME280;4985;49.092;8.542;2023-06-22T12:04:59;99010.16;;;26.76;51.34
9893;BME280;4985;49.092;8.542;2023-06-22T12:07:25;99021.75;;;26.76;51.33
9893;BME280;4985;49.092;8.542;2023-06-22T12:09:52;99019.88;;;26.77;51.34
9893;BME280;4985;49.092;8.542;2023-06-22T12:12:18;99017.69;;;26.79;51.31
9893;BME280;4985;49.092;8.542;2023-06-22T12:14:45;99012.28;;;26.79;51.33
9893;BME280;4985;49.092;8.542;2023-06-22T12:17:12;99003.09;;;26.80;51.36
9893;BME280;4985;49.092;8.542;2023-06-22T12:19:38;99014.72;;;26.80;51.42
9893;BME280;4985;49.092;8.542;2023-06-22T12:22:06;99007.44;;;26.81;51.41
9893;BME280;4985;49.092;8.542;2023-06-22T12:24:33;99014.44;;;26.82;51.42
9893;BME280;4985;49.092;8.542;2023-06-22T12:26:59;99044.94;;;26.82;51.43
9893;BME280;4985;49.092;8.542;2023-06-22T12:29:27;99047.38;;;26.84;51.45
9893;BME280;4985;49.092;8.542;2023-06-22T12:31:54;99055.47;;;26.84;51.43
9893;BME280;4985;49.092;8.542;2023-06-22T12:34:20;99059.81;;;26.85;51.45
9893;BME280;4985;49.092;8.542;2023-06-22T12:36:47;99059.00;;;26.84;51.44
9893;BME280;4985;49.092;8.542;2023-06-22T12:39:15;99051.44;;;26.86;51.45
9893;BME280;4985;49.092;8.542;2023-06-22T12:41:41;99041.44;;;26.87;51.47
9893;BME280;4985;49.092;8.542;2023-06-22T12:44:08;99045.75;;;26.88;51.51
9893;BME280;4985;49.092;8.542;2023-06-22T12:46:34;99049.25;;;26.88;51.54
9893;BME280;4985;49.092;8.542;2023-06-22T12:49:03;99040.06;;;26.89;51.52
9893;BME280;4985;49.092;8.542;2023-06-22T12:51:30;99030.06;;;26.90;51.58
9893;BME280;4985;49.092;8.542;2023-06-22T12:53:57;99026.28;;;26.91;51.60
9893;BME280;4985;49.092;8.542;2023-06-22T12:56:25;99018.19;;;26.91;51.58
9893;BME280;4985;49.092;8.542;2023-06-22T12:58:51;99022.50;;;26.92;51.62
9893;BME280;4985;49.092;8.542;2023-06-22T13:01:18;99014.41;;;26.92;51.68
9893;BME280;4985;49.092;8.542;2023-06-22T13:03:44;98998.72;;;26.94;51.67
9893;BME280;4985;49.092;8.542;2023-06-22T13:06:11;99010.34;;;26.94;51.72
9893;BME280;4985;49.092;8.542;2023-06-22T13:08:37;99003.03;;;26.95;51.72
9893;BME280;4985;49.092;8.542;2023-06-22T13:11:04;99002.78;;;26.96;51.73
9893;BME280;4985;49.092;8.542;2023-06-22T13:13:32;99004.69;;;26.96;51.74
9893;BME280;4985;49.092;8.542;2023-06-22T13:15:59;99008.19;;;26.96;51.81
9893;BME280;4985;49.092;8.542;2023-06-22T13:18:26;99012.50;;;26.97;51.77
9893;BME280;4985;49.092;8.542;2023-06-22T13:20:52;99007.91;;;26.98;51.78
9893;BME280;4985;49.092;8.542;2023-06-22T13:23:20;99002.22;;;26.99;51.81